Terminal Aerodrome Forecast
Issued by NWS Paducah, KY

Home | Current Version | Previous Version | Text Only | Print | Product List | Glossary On
Versions: 1 2 3 4 5 6 7 8 9 10 11 12 13 14 15 16 17 18
809
FTUS43 KPAH 300754 AAC
TAFPAH
TAF AMD
KPAH 300754Z 3008/0106 10006KT P6SM VCSH BKN045 OVC100
     FM300830 23020G40KT 2SM +TSRA BR BKN020CB
     FM300930 18005KT 4SM TSRA BR OVC040CB
     FM301500 16011G20KT 5SM SHRA VCTS OVC030CB
     FM302200 18016G24KT P6SM -SHRA OVC045
     FM010500 22011G20KT P6SM -SHRA SCT090=

USA.gov is the U.S. government's official web portal to all federal, state and local government web resources and services.